sensor_id;sensor_type;location;lat;lon;timestamp;pressure;altitude;pressure_sealevel;temperature;humidity
11053;BME280;55230;42.602;23.470;2023-04-21T00:02:18;93076.94;;;8.11;96.10
11053;BME280;55230;42.602;23.470;2023-04-21T00:04:45;93121.25;;;8.38;95.75
11053;BME280;55230;42.602;23.470;2023-04-21T00:07:13;93054.50;;;7.96;95.54
11053;BME280;55230;42.602;23.470;2023-04-21T00:09:40;93131.88;;;8.41;95.43
11053;BME280;55230;42.602;23.470;2023-04-21T00:12:07;93106.72;;;8.26;95.72
11053;BME280;55230;42.602;23.470;2023-04-21T00:14:34;93053.56;;;7.90;95.76
11053;BME280;55230;42.602;23.470;2023-04-21T00:17:00;93118.75;;;8.43;95.23
11053;BME280;55230;42.602;23.470;2023-04-21T00:19:27;93057.63;;;7.95;95.41
11053;BME280;55230;42.602;23.470;2023-04-21T00:21:54;92891.03;;;6.88;94.79
11053;BME280;55230;42.602;23.470;2023-04-21T00:24:24;93049.66;;;7.82;95.77
11053;BME280;55230;42.602;23.470;2023-04-21T00:26:51;93118.22;;;8.27;96.22
11053;BME280;55230;42.602;23.470;2023-04-21T00:29:18;93135.53;;;8.26;96.42
11053;BME280;55230;42.602;23.470;2023-04-21T00:31:44;92991.31;;;7.22;96.55
11053;BME280;55230;42.602;23.470;2023-04-21T00:34:11;93033.03;;;7.75;95.36
11053;BME280;55230;42.602;23.470;2023-04-21T00:36:38;93060.38;;;7.82;95.81
11053;BME280;55230;42.602;23.470;2023-04-21T00:39:04;93122.53;;;8.24;96.25
11053;BME280;55230;42.602;23.470;2023-04-21T00:41:33;93127.38;;;8.16;96.92
11053;BME280;55230;42.602;23.470;2023-04-21T00:44:02;93149.38;;;8.02;97.73
11053;BME280;55230;42.602;23.470;2023-04-21T00:46:29;93122.75;;;7.86;99.32
11053;BME280;55230;42.602;23.470;2023-04-21T00:48:56;93122.13;;;7.82;99.78
11053;BME280;55230;42.602;23.470;2023-04-21T00:51:23;93111.63;;;7.75;100.00
11053;BME280;55230;42.602;23.470;2023-04-21T00:53:50;93038.31;;;7.14;100.00
11053;BME280;55230;42.602;23.470;2023-04-21T00:56:17;93062.66;;;7.41;99.80
11053;BME280;55230;42.602;23.470;2023-04-21T00:58:47;93178.91;;;7.81;99.92
11053;BME280;55230;42.602;23.470;2023-04-21T01:01:14;93117.38;;;7.86;99.08
11053;BME280;55230;42.602;23.470;2023-04-21T01:03:41;93116.50;;;7.89;99.38
11053;BME280;55230;42.602;23.470;2023-04-21T01:06:08;92919.13;;;6.62;98.35
11053;BME280;55230;42.602;23.470;2023-04-21T01:08:35;93115.16;;;7.94;98.20
11053;BME280;55230;42.602;23.470;2023-04-21T01:11:08;93010.56;;;7.29;97.96
11053;BME280;55230;42.602;23.470;2023-04-21T01:13:35;92606.38;;;4.50;97.47
11053;BME280;55230;42.602;23.470;2023-04-21T01:16:04;93106.56;;;7.77;97.54
11053;BME280;55230;42.602;23.470;2023-04-21T01:18:32;92978.59;;;6.91;99.23
11053;BME280;55230;42.602;23.470;2023-04-21T01:20:59;93111.31;;;7.73;99.57
11053;BME280;55230;42.602;23.470;2023-04-21T01:23:28;92899.28;;;6.04;99.09
11053;BME280;55230;42.602;23.470;2023-04-21T01:25:54;92746.16;;;5.19;99.29
11053;BME280;55230;42.602;23.470;2023-04-21T01:28:21;92794.00;;;5.39;100.00
11053;BME280;55230;42.602;23.470;2023-04-21T01:30:48;93126.59;;;7.42;100.00
11053;BME280;55230;42.602;23.470;2023-04-21T01:33:15;93129.81;;;7.37;100.00
11053;BME280;55230;42.602;23.470;2023-04-21T01:35:42;92998.06;;;6.70;100.00
11053;BME280;55230;42.602;23.470;2023-04-21T01:38:09;92518.63;;;3.43;100.00
11053;BME280;55230;42.602;23.470;2023-04-21T01:40:38;93041.63;;;6.83;100.00
11053;BME280;55230;42.602;23.470;2023-04-21T01:43:06;93121.84;;;7.46;100.00
11053;BME280;55230;42.602;23.470;2023-04-21T01:45:33;92645.69;;;4.25;100.00
11053;BME280;55230;42.602;23.470;2023-04-21T01:48:00;93099.97;;;7.48;100.00
11053;BME280;55230;42.602;23.470;2023-04-21T01:50:27;93088.63;;;7.44;100.00
11053;BME280;55230;42.602;23.470;2023-04-21T01:52:54;93038.78;;;6.99;100.00
11053;BME280;55230;42.602;23.470;2023-04-21T01:55:21;93060.56;;;7.01;100.00
11053;BME280;55230;42.602;23.470;2023-04-21T01:57:49;93023.47;;;7.00;100.00
11053;BME280;55230;42.602;23.470;2023-04-21T02:00:16;93094.34;;;7.55;100.00
11053;BME280;55230;42.602;23.470;2023-04-21T02:02:43;92993.72;;;6.85;100.00
11053;BME280;55230;42.602;23.470;2023-04-21T02:05:10;93078.25;;;7.55;100.00
11053;BME280;55230;42.602;23.470;2023-04-21T02:07:37;93092.25;;;7.71;99.36
11053;BME280;55230;42.602;23.470;2023-04-21T02:10:04;93003.78;;;7.16;99.01
11053;BME280;55230;42.602;23.470;2023-04-21T02:12:31;93091.97;;;7.78;98.78
11053;BME280;55230;42.602;23.470;2023-04-21T02:14:59;92994.19;;;7.06;98.96
11053;BME280;55230;42.602;23.470;2023-04-21T02:17:26;93019.13;;;7.15;98.93
11053;BME280;55230;42.602;23.470;2023-04-21T02:19:52;93084.47;;;7.73;99.07
11053;BME280;55230;42.602;23.470;2023-04-21T02:22:19;93089.00;;;7.76;98.60
11053;BME280;55230;42.602;23.470;2023-04-21T02:24:47;92748.81;;;5.19;98.42
11053;BME280;55230;42.602;23.470;2023-04-21T02:27:14;92808.47;;;5.75;97.86
11053;BME280;55230;42.602;23.470;2023-04-21T02:29:41;93087.84;;;7.65;98.68
11053;BME280;55230;42.602;23.470;2023-04-21T02:32:09;93062.59;;;7.53;98.36
11053;BME280;55230;42.602;23.470;2023-04-21T02:34:36;93084.06;;;7.53;98.07
11053;BME280;55230;42.602;23.470;2023-04-21T02:37:03;92865.47;;;5.98;97.25
11053;BME280;55230;42.602;23.470;2023-04-21T02:39:30;93088.03;;;7.70;97.75
11053;BME280;55230;42.602;23.470;2023-04-21T02:41:57;93089.13;;;7.73;97.58
11053;BME280;55230;42.602;23.470;2023-04-21T02:44:24;93062.91;;;7.55;97.46
11053;BME280;55230;42.602;23.470;2023-04-21T02:46:50;93067.44;;;7.46;96.95
11053;BME280;55230;42.602;23.470;2023-04-21T02:49:18;93019.84;;;7.37;97.51
11053;BME280;55230;42.602;23.470;2023-04-21T02:51:45;92990.44;;;7.03;97.86
11053;BME280;55230;42.602;23.470;2023-04-21T02:54:12;93032.72;;;7.21;98.06
11053;BME280;55230;42.602;23.470;2023-04-21T02:56:39;93106.72;;;7.52;99.47
11053;BME280;55230;42.602;23.470;2023-04-21T02:59:05;93111.38;;;7.39;99.46
11053;BME280;55230;42.602;23.470;2023-04-21T03:01:32;93040.66;;;6.90;100.00
11053;BME280;55230;42.602;23.470;2023-04-21T03:03:59;93070.59;;;7.10;100.00
11053;BME280;55230;42.602;23.470;2023-04-21T03:06:27;92766.56;;;5.13;100.00
11053;BME280;55230;42.602;23.470;2023-04-21T03:08:54;93087.22;;;7.39;100.00
11053;BME280;55230;42.602;23.470;2023-04-21T03:11:21;92968.50;;;6.61;100.00
11053;BME280;55230;42.602;23.470;2023-04-21T03:13:48;93056.41;;;7.22;100.00
11053;BME280;55230;42.602;23.470;2023-04-21T03:16:15;93092.06;;;7.32;100.00
11053;BME280;55230;42.602;23.470;2023-04-21T03:18:42;93042.31;;;7.09;100.00
11053;BME280;55230;42.602;23.470;2023-04-21T03:21:09;93115.56;;;7.62;100.00
11053;BME280;55230;42.602;23.470;2023-04-21T03:23:37;92906.81;;;6.31;100.00
11053;BME280;55230;42.602;23.470;2023-04-21T03:26:05;93023.16;;;7.20;100.00
11053;BME280;55230;42.602;23.470;2023-04-21T03:28:32;93103.44;;;8.00;100.00
11053;BME280;55230;42.602;23.470;2023-04-21T03:30:59;92700.34;;;5.30;100.00
11053;BME280;55230;42.602;23.470;2023-04-21T03:33:26;93018.22;;;7.61;100.00
11053;BME280;55230;42.602;23.470;2023-04-21T03:35:52;93042.03;;;7.81;99.56
11053;BME280;55230;42.602;23.470;2023-04-21T03:38:19;93106.66;;;8.39;99.66
11053;BME280;55230;42.602;23.470;2023-04-21T03:40:48;93035.22;;;7.89;98.45
11053;BME280;55230;42.602;23.470;2023-04-21T03:43:14;93075.78;;;8.21;98.91
11053;BME280;55230;42.602;23.470;2023-04-21T03:45:41;93123.09;;;8.50;98.34
11053;BME280;55230;42.602;23.470;2023-04-21T03:48:08;93111.31;;;8.56;97.32
11053;BME280;55230;42.602;23.470;2023-04-21T03:50:35;93134.19;;;8.61;96.27
11053;BME280;55230;42.602;23.470;2023-04-21T03:53:01;93089.91;;;8.35;96.95
11053;BME280;55230;42.602;23.470;2023-04-21T03:55:28;92983.66;;;7.63;96.90
11053;BME280;55230;42.602;23.470;2023-04-21T03:57:56;92959.50;;;7.11;96.49
11053;BME280;55230;42.602;23.470;2023-04-21T04:00:23;93103.97;;;8.39;95.97
11053;BME280;55230;42.602;23.470;2023-04-21T04:02:50;93079.28;;;8.31;95.02
11053;BME280;55230;42.602;23.470;2023-04-21T04:05:17;93138.13;;;8.78;95.06
11053;BME280;55230;42.602;23.470;2023-04-21T04:07:44;93116.59;;;8.69;94.68
11053;BME280;55230;42.602;23.470;2023-04-21T04:10:10;92975.16;;;7.95;94.33
11053;BME280;55230;42.602;23.470;2023-04-21T04:12:37;92803.25;;;6.71;93.63
11053;BME280;55230;42.602;23.470;2023-04-21T04:15:06;92857.56;;;6.93;93.41
11053;BME280;55230;42.602;23.470;2023-04-21T04:17:33;93073.63;;;8.78;92.89
11053;BME280;55230;42.602;23.470;2023-04-21T04:20:00;93096.38;;;9.13;93.02
11053;BME280;55230;42.602;23.470;2023-04-21T04:22:28;93102.84;;;9.52;91.93
11053;BME280;55230;42.602;23.470;2023-04-21T04:24:55;93076.06;;;9.48;88.64
11053;BME280;55230;42.602;23.470;2023-04-21T04:27:24;93145.75;;;10.09;88.19
11053;BME280;55230;42.602;23.470;2023-04-21T04:29:51;92593.59;;;6.31;86.77
11053;BME280;55230;42.602;23.470;2023-04-21T04:32:29;92862.34;;;8.71;86.25
11053;BME280;55230;42.602;23.470;2023-04-21T04:34:57;92955.25;;;9.59;84.96
11053;BME280;55230;42.602;23.470;2023-04-21T04:37:24;93158.88;;;11.18;83.83
11053;BME280;55230;42.602;23.470;2023-04-21T04:39:52;93034.28;;;10.72;80.54
11053;BME280;55230;42.602;23.470;2023-04-21T04:42:19;93174.19;;;11.68;79.16
11053;BME280;55230;42.602;23.470;2023-04-21T04:44:45;93212.69;;;11.45;79.45
11053;BME280;55230;42.602;23.470;2023-04-21T04:47:12;92846.38;;;9.27;79.38
11053;BME280;55230;42.602;23.470;2023-04-21T04:49:40;93163.81;;;11.43;78.65
11053;BME280;55230;42.602;23.470;2023-04-21T04:52:07;93182.28;;;11.68;79.42
11053;BME280;55230;42.602;23.470;2023-04-21T04:54:34;93188.31;;;11.30;78.91
11053;BME280;55230;42.602;23.470;2023-04-21T04:57:01;93060.00;;;10.49;79.65
11053;BME280;55230;42.602;23.470;2023-04-21T04:59:29;92622.38;;;7.60;80.30
11053;BME280;55230;42.602;23.470;2023-04-21T05:01:56;93130.72;;;11.10;79.35
11053;BME280;55230;42.602;23.470;2023-04-21T05:04:22;93018.06;;;10.07;82.18
11053;BME280;55230;42.602;23.470;2023-04-21T05:06:50;93178.41;;;10.71;83.10
11053;BME280;55230;42.602;23.470;2023-04-21T05:09:17;93081.41;;;10.02;83.20
11053;BME280;55230;42.602;23.470;2023-04-21T05:11:44;92642.13;;;6.51;87.28
11053;BME280;55230;42.602;23.470;2023-04-21T05:14:11;93082.34;;;9.45;89.88
11053;BME280;55230;42.602;23.470;2023-04-21T05:16:37;92900.03;;;8.23;89.42
11053;BME280;55230;42.602;23.470;2023-04-21T05:19:04;93131.22;;;9.25;92.25
11053;BME280;55230;42.602;23.470;2023-04-21T05:21:31;93210.38;;;9.64;93.61
11053;BME280;55230;42.602;23.470;2023-04-21T05:23:59;93191.06;;;9.66;92.77
11053;BME280;55230;42.602;23.470;2023-04-21T05:26:27;93171.63;;;9.80;92.69
11053;BME280;55230;42.602;23.470;2023-04-21T05:28:54;93175.66;;;9.75;93.44
11053;BME280;55230;42.602;23.470;2023-04-21T05:31:21;93113.28;;;9.41;93.13
11053;BME280;55230;42.602;23.470;2023-04-21T05:33:48;92673.47;;;6.32;92.61
11053;BME280;55230;42.602;23.470;2023-04-21T05:36:15;93177.91;;;10.04;92.64
11053;BME280;55230;42.602;23.470;2023-04-21T05:38:43;92599.53;;;5.95;93.25
11053;BME280;55230;42.602;23.470;2023-04-21T05:41:12;93173.28;;;9.77;93.91
11053;BME280;55230;42.602;23.470;2023-04-21T05:43:38;93136.63;;;9.53;93.78
11053;BME280;55230;42.602;23.470;2023-04-21T05:46:08;93172.38;;;10.16;93.39
11053;BME280;55230;42.602;23.470;2023-04-21T05:48:35;93182.53;;;10.30;90.95
11053;BME280;55230;42.602;23.470;2023-04-21T05:51:07;93068.56;;;9.61;91.27
11053;BME280;55230;42.602;23.470;2023-04-21T05:53:34;93167.69;;;10.44;88.31
11053;BME280;55230;42.602;23.470;2023-04-21T05:56:00;92643.78;;;6.97;87.96
11053;BME280;55230;42.602;23.470;2023-04-21T05:58:28;93199.22;;;10.71;88.17
11053;BME280;55230;42.602;23.470;2023-04-21T06:00:55;93146.00;;;10.29;87.94
11053;BME280;55230;42.602;23.470;2023-04-21T06:03:22;93191.34;;;10.91;87.73
11053;BME280;55230;42.602;23.470;2023-04-21T06:05:53;93256.81;;;11.09;87.69
11053;BME280;55230;42.602;23.470;2023-04-21T06:08:20;93147.47;;;11.14;86.82
11053;BME280;55230;42.602;23.470;2023-04-21T06:10:47;93131.13;;;10.94;84.79
11053;BME280;55230;42.602;23.470;2023-04-21T06:13:14;92794.88;;;8.33;87.72
11053;BME280;55230;42.602;23.470;2023-04-21T06:15:42;92971.22;;;10.46;84.95
11053;BME280;55230;42.602;23.470;2023-04-21T06:18:09;93165.03;;;11.42;84.02
11053;BME280;55230;42.602;23.470;2023-04-21T06:20:35;92795.50;;;9.39;81.85
11053;BME280;55230;42.602;23.470;2023-04-21T06:23:02;93064.25;;;11.59;80.27
11053;BME280;55230;42.602;23.470;2023-04-21T06:25:31;92779.69;;;9.64;80.68
11053;BME280;55230;42.602;23.470;2023-04-21T06:27:58;93188.78;;;12.82;78.88
11053;BME280;55230;42.602;23.470;2023-04-21T06:30:25;92804.22;;;10.52;75.51
11053;BME280;55230;42.602;23.470;2023-04-21T06:32:53;93177.72;;;13.00;77.32
11053;BME280;55230;42.602;23.470;2023-04-21T06:35:20;92777.63;;;9.83;78.34
11053;BME280;55230;42.602;23.470;2023-04-21T06:37:46;93167.09;;;12.09;79.89
11053;BME280;55230;42.602;23.470;2023-04-21T06:40:13;93147.84;;;12.30;81.34
11053;BME280;55230;42.602;23.470;2023-04-21T06:42:41;93196.69;;;12.41;81.53
11053;BME280;55230;42.602;23.470;2023-04-21T06:45:09;93167.75;;;12.18;82.40
11053;BME280;55230;42.602;23.470;2023-04-21T06:47:36;93166.94;;;12.41;78.88
11053;BME280;55230;42.602;23.470;2023-04-21T06:50:05;92793.34;;;9.75;80.88
11053;BME280;55230;42.602;23.470;2023-04-21T06:52:33;93116.00;;;11.82;85.38
11053;BME280;55230;42.602;23.470;2023-04-21T06:55:00;92909.28;;;10.13;82.67
11053;BME280;55230;42.602;23.470;2023-04-21T06:57:27;93025.72;;;11.21;82.85
11053;BME280;55230;42.602;23.470;2023-04-21T06:59:53;93158.44;;;12.19;84.13
11053;BME280;55230;42.602;23.470;2023-04-21T07:02:20;93164.91;;;12.36;83.82
11053;BME280;55230;42.602;23.470;2023-04-21T07:04:47;93167.88;;;12.67;82.99
11053;BME280;55230;42.602;23.470;2023-04-21T07:07:15;92955.06;;;11.08;79.04
11053;BME280;55230;42.602;23.470;2023-04-21T07:09:42;93168.44;;;12.71;78.17
11053;BME280;55230;42.602;23.470;2023-04-21T07:12:11;93151.22;;;12.54;76.93
11053;BME280;55230;42.602;23.470;2023-04-21T07:14:38;93175.06;;;12.70;77.68
11053;BME280;55230;42.602;23.470;2023-04-21T07:17:05;93113.25;;;12.34;75.26
11053;BME280;55230;42.602;23.470;2023-04-21T07:19:32;93181.47;;;12.88;76.09
11053;BME280;55230;42.602;23.470;2023-04-21T07:21:59;93175.16;;;12.76;76.55
11053;BME280;55230;42.602;23.470;2023-04-21T07:24:27;93172.25;;;12.94;77.08
11053;BME280;55230;42.602;23.470;2023-04-21T07:26:54;93170.56;;;12.97;76.22
11053;BME280;55230;42.602;23.470;2023-04-21T07:29:20;93154.63;;;12.55;76.54
11053;BME280;55230;42.602;23.470;2023-04-21T07:31:47;93192.13;;;13.06;77.08
11053;BME280;55230;42.602;23.470;2023-04-21T07:34:14;93171.75;;;13.25;75.67
11053;BME280;55230;42.602;23.470;2023-04-21T07:36:40;93238.78;;;13.01;76.25
11053;BME280;55230;42.602;23.470;2023-04-21T07:39:07;92952.66;;;11.39;75.30
11053;BME280;55230;42.602;23.470;2023-04-21T07:41:36;93175.13;;;13.20;74.77
11053;BME280;55230;42.602;23.470;2023-04-21T07:44:03;93169.09;;;13.85;74.55
11053;BME280;55230;42.602;23.470;2023-04-21T07:46:30;93181.47;;;14.57;69.50
11053;BME280;55230;42.602;23.470;2023-04-21T07:48:57;93181.41;;;14.26;69.18
11053;BME280;55230;42.602;23.470;2023-04-21T07:51:24;93137.13;;;13.89;68.32
11053;BME280;55230;42.602;23.470;2023-04-21T07:53:52;93184.47;;;13.73;69.62
11053;BME280;55230;42.602;23.470;2023-04-21T07:56:18;93141.72;;;13.63;71.01
11053;BME280;55230;42.602;23.470;2023-04-21T07:58:47;93170.47;;;14.21;72.92
11053;BME280;55230;42.602;23.470;2023-04-21T08:01:14;93146.78;;;13.96;69.84
11053;BME280;55230;42.602;23.470;2023-04-21T08:03:40;93179.97;;;14.11;69.68
11053;BME280;55230;42.602;23.470;2023-04-21T08:06:07;93183.91;;;14.30;68.56
11053;BME280;55230;42.602;23.470;2023-04-21T08:08:34;93140.41;;;13.99;69.49
11053;BME280;55230;42.602;23.470;2023-04-21T08:11:01;93190.63;;;14.14;70.02
11053;BME280;55230;42.602;23.470;2023-04-21T08:13:28;93112.19;;;13.85;67.80
11053;BME280;55230;42.602;23.470;2023-04-21T08:15:56;93211.44;;;14.68;65.29
11053;BME280;55230;42.602;23.470;2023-04-21T08:18:23;93091.50;;;13.87;66.11
11053;BME280;55230;42.602;23.470;2023-04-21T08:20:49;93179.63;;;14.23;67.00
11053;BME280;55230;42.602;23.470;2023-04-21T08:23:16;93174.81;;;14.33;67.84
11053;BME280;55230;42.602;23.470;2023-04-21T08:25:43;93215.50;;;14.33;66.20
11053;BME280;55230;42.602;23.470;2023-04-21T08:28:10;92984.88;;;13.45;68.08
11053;BME280;55230;42.602;23.470;2023-04-21T08:30:38;93176.47;;;14.50;66.66
11053;BME280;55230;42.602;23.470;2023-04-21T08:33:06;93177.00;;;14.29;66.21
11053;BME280;55230;42.602;23.470;2023-04-21T08:35:37;93123.38;;;14.18;65.78
11053;BME280;55230;42.602;23.470;2023-04-21T08:38:04;93140.16;;;13.76;64.45
11053;BME280;55230;42.602;23.470;2023-04-21T08:40:33;93178.13;;;14.22;66.11
11053;BME280;55230;42.602;23.470;2023-04-21T08:43:00;93177.72;;;14.49;66.54
11053;BME280;55230;42.602;23.470;2023-04-21T08:45:27;93204.25;;;14.65;62.58
11053;BME280;55230;42.602;23.470;2023-04-21T08:47:54;93173.00;;;14.50;63.70
11053;BME280;55230;42.602;23.470;2023-04-21T08:50:25;93130.31;;;13.79;64.60
11053;BME280;55230;42.602;23.470;2023-04-21T08:52:53;93167.28;;;14.22;66.00
11053;BME280;55230;42.602;23.470;2023-04-21T08:55:24;93104.59;;;13.69;63.17
11053;BME280;55230;42.602;23.470;2023-04-21T08:57:51;93172.53;;;14.51;64.01
11053;BME280;55230;42.602;23.470;2023-04-21T09:00:18;93067.69;;;13.97;64.18
11053;BME280;55230;42.602;23.470;2023-04-21T09:02:53;93130.16;;;14.28;65.45
11053;BME280;55230;42.602;23.470;2023-04-21T09:05:22;93158.22;;;14.76;63.98
11053;BME280;55230;42.602;23.470;2023-04-21T09:07:51;93173.97;;;15.03;62.62
11053;BME280;55230;42.602;23.470;2023-04-21T09:10:21;93136.06;;;14.83;60.74
11053;BME280;55230;42.602;23.470;2023-04-21T09:12:49;93060.78;;;14.47;58.77
11053;BME280;55230;42.602;23.470;2023-04-21T09:15:19;93107.41;;;15.19;58.78
11053;BME280;55230;42.602;23.470;2023-04-21T09:17:46;93155.19;;;15.00;57.82
11053;BME280;55230;42.602;23.470;2023-04-21T09:20:14;93147.53;;;14.98;55.61
11053;BME280;55230;42.602;23.470;2023-04-21T09:22:43;92790.97;;;12.50;57.79
11053;BME280;55230;42.602;23.470;2023-04-21T09:25:14;93109.19;;;14.91;61.71
11053;BME280;55230;42.602;23.470;2023-04-21T09:27:42;93037.34;;;15.29;57.70
11053;BME280;55230;42.602;23.470;2023-04-21T09:30:09;93136.34;;;16.34;53.91
11053;BME280;55230;42.602;23.470;2023-04-21T09:32:37;93010.41;;;14.72;52.44
11053;BME280;55230;42.602;23.470;2023-04-21T09:35:05;93123.56;;;15.81;56.73
11053;BME280;55230;42.602;23.470;2023-04-21T09:37:35;92656.91;;;12.38;51.87
11053;BME280;55230;42.602;23.470;2023-04-21T09:40:04;93136.66;;;15.83;53.80
11053;BME280;55230;42.602;23.470;2023-04-21T09:42:32;93115.03;;;15.52;59.22
11053;BME280;55230;42.602;23.470;2023-04-21T09:45:00;93130.75;;;15.37;56.27
11053;BME280;55230;42.602;23.470;2023-04-21T09:47:28;93135.44;;;14.68;60.43
11053;BME280;55230;42.602;23.470;2023-04-21T09:49:57;93128.41;;;14.82;58.41
11053;BME280;55230;42.602;23.470;2023-04-21T09:52:25;93170.53;;;14.77;59.10
11053;BME280;55230;42.602;23.470;2023-04-21T09:54:57;93122.66;;;14.74;59.76
11053;BME280;55230;42.602;23.470;2023-04-21T09:57:30;93015.25;;;13.74;59.39
11053;BME280;55230;42.602;23.470;2023-04-21T10:00:00;93118.53;;;14.84;59.47
11053;BME280;55230;42.602;23.470;2023-04-21T10:02:30;93135.56;;;14.85;58.79
11053;BME280;55230;42.602;23.470;2023-04-21T10:04:58;93114.34;;;14.83;59.05
11053;BME280;55230;42.602;23.470;2023-04-21T10:07:24;93113.81;;;14.48;58.17
11053;BME280;55230;42.602;23.470;2023-04-21T10:09:53;93110.97;;;14.63;60.30
11053;BME280;55230;42.602;23.470;2023-04-21T10:12:22;93109.34;;;14.76;60.96
11053;BME280;55230;42.602;23.470;2023-04-21T10:14:52;93074.16;;;14.93;58.47
11053;BME280;55230;42.602;23.470;2023-04-21T10:17:22;93095.81;;;15.19;56.19
11053;BME280;55230;42.602;23.470;2023-04-21T10:19:51;93106.38;;;15.11;56.69
11053;BME280;55230;42.602;23.470;2023-04-21T10:22:28;93067.03;;;14.95;53.40
11053;BME280;55230;42.602;23.470;2023-04-21T10:24:57;92884.78;;;13.87;54.05
11053;BME280;55230;42.602;23.470;2023-04-21T10:27:31;92997.81;;;14.74;51.63
11053;BME280;55230;42.602;23.470;2023-04-21T10:30:00;93101.50;;;15.63;52.90
11053;BME280;55230;42.602;23.470;2023-04-21T10:32:30;93014.28;;;15.07;51.72
11053;BME280;55230;42.602;23.470;2023-04-21T10:35:08;93076.22;;;15.46;53.12
11053;BME280;55230;42.602;23.470;2023-04-21T10:37:34;93099.47;;;15.52;53.12
11053;BME280;55230;42.602;23.470;2023-04-21T10:40:01;93096.91;;;15.85;55.19
11053;BME280;55230;42.602;23.470;2023-04-21T10:42:34;93099.78;;;16.57;50.45
11053;BME280;55230;42.602;23.470;2023-04-21T10:45:10;93080.47;;;16.66;47.27
11053;BME280;55230;42.602;23.470;2023-04-21T10:47:39;92746.69;;;13.67;54.93
11053;BME280;55230;42.602;23.470;2023-04-21T10:50:12;92740.25;;;13.22;55.91
11053;BME280;55230;42.602;23.470;2023-04-21T10:52:43;93088.69;;;15.27;58.32
11053;BME280;55230;42.602;23.470;2023-04-21T10:55:10;93091.91;;;15.31;58.70
11053;BME280;55230;42.602;23.470;2023-04-21T10:57:41;93088.19;;;15.23;59.66
11053;BME280;55230;42.602;23.470;2023-04-21T11:00:13;93097.66;;;15.01;61.00
11053;BME280;55230;42.602;23.470;2023-04-21T11:02:41;93091.91;;;15.25;61.28
11053;BME280;55230;42.602;23.470;2023-04-21T11:05:08;92627.38;;;12.09;60.36
11053;BME280;55230;42.602;23.470;2023-04-21T11:07:35;93070.28;;;15.42;61.53
11053;BME280;55230;42.602;23.470;2023-04-21T11:10:04;93091.03;;;15.45;60.50
11053;BME280;55230;42.602;23.470;2023-04-21T11:12:32;93086.41;;;15.56;60.71
11053;BME280;55230;42.602;23.470;2023-04-21T11:15:03;93018.78;;;15.80;59.32
11053;BME280;55230;42.602;23.470;2023-04-21T11:17:33;93067.00;;;15.91;57.72
11053;BME280;55230;42.602;23.470;2023-04-21T11:20:01;92747.03;;;13.80;55.98
11053;BME280;55230;42.602;23.470;2023-04-21T11:22:31;93087.78;;;15.94;52.27
11053;BME280;55230;42.602;23.470;2023-04-21T11:24:59;92786.47;;;13.50;54.11
11053;BME280;55230;42.602;23.470;2023-04-21T11:27:27;92951.28;;;14.50;53.51
11053;BME280;55230;42.602;23.470;2023-04-21T11:29:55;93126.63;;;15.47;51.48
11053;BME280;55230;42.602;23.470;2023-04-21T11:32:22;93049.97;;;14.89;51.78
11053;BME280;55230;42.602;23.470;2023-04-21T11:34:51;93091.03;;;15.45;53.79
11053;BME280;55230;42.602;23.470;2023-04-21T11:37:22;93036.56;;;15.23;52.58
11053;BME280;55230;42.602;23.470;2023-04-21T11:39:56;93069.06;;;15.43;56.88
11053;BME280;55230;42.602;23.470;2023-04-21T11:42:25;93067.91;;;15.66;58.13
11053;BME280;55230;42.602;23.470;2023-04-21T11:44:53;93087.03;;;14.98;59.84
11053;BME280;55230;42.602;23.470;2023-04-21T11:47:22;93087.53;;;15.39;60.74
11053;BME280;55230;42.602;23.470;2023-04-21T11:49:52;93085.19;;;15.63;60.46
11053;BME280;55230;42.602;23.470;2023-04-21T11:52:24;92897.34;;;14.21;59.37
11053;BME280;55230;42.602;23.470;2023-04-21T11:54:56;93026.50;;;15.29;59.94
11053;BME280;55230;42.602;23.470;2023-04-21T11:57:23;92833.44;;;14.09;59.62
11053;BME280;55230;42.602;23.470;2023-04-21T11:59:51;93082.06;;;15.92;55.93
11053;BME280;55230;42.602;23.470;2023-04-21T12:02:23;93167.97;;;16.26;56.91
11053;BME280;55230;42.602;23.470;2023-04-21T12:04:59;93111.47;;;15.88;55.89
11053;BME280;55230;42.602;23.470;2023-04-21T12:07:27;92973.31;;;14.63;59.87
11053;BME280;55230;42.602;23.470;2023-04-21T12:09:54;93107.38;;;15.14;62.52
11053;BME280;55230;42.602;23.470;2023-04-21T12:12:21;93078.09;;;14.86;61.97
11053;BME280;55230;42.602;23.470;2023-04-21T12:14:50;93053.13;;;14.82;61.45
11053;BME280;55230;42.602;23.470;2023-04-21T12:17:17;93047.19;;;14.78;61.10
11053;BME280;55230;42.602;23.470;2023-04-21T12:19:44;93088.81;;;15.01;62.63
11053;BME280;55230;42.602;23.470;2023-04-21T12:22:15;93182.13;;;15.03;61.61
11053;BME280;55230;42.602;23.470;2023-04-21T12:24:43;93096.28;;;15.17;60.68
11053;BME280;55230;42.602;23.470;2023-04-21T12:27:10;93076.53;;;14.74;61.43
11053;BME280;55230;42.602;23.470;2023-04-21T12:29:39;93095.72;;;15.02;61.33
11053;BME280;55230;42.602;23.470;2023-04-21T12:32:06;92591.72;;;11.59;59.43
11053;BME280;55230;42.602;23.470;2023-04-21T12:34:36;93117.84;;;14.89;58.24
11053;BME280;55230;42.602;23.470;2023-04-21T12:37:03;93009.56;;;14.60;56.10
11053;BME280;55230;42.602;23.470;2023-04-21T12:39:32;93096.13;;;15.32;54.74
11053;BME280;55230;42.602;23.470;2023-04-21T12:41:59;93090.31;;;15.50;57.28
11053;BME280;55230;42.602;23.470;2023-04-21T12:44:26;93053.13;;;15.25;53.08
11053;BME280;55230;42.602;23.470;2023-04-21T12:46:53;93032.03;;;15.03;50.67
11053;BME280;55230;42.602;23.470;2023-04-21T12:49:19;93074.28;;;15.52;49.19
11053;BME280;55230;42.602;23.470;2023-04-21T12:51:48;93086.94;;;15.66;50.77
11053;BME280;55230;42.602;23.470;2023-04-21T12:54:14;93099.13;;;15.87;52.46
11053;BME280;55230;42.602;23.470;2023-04-21T12:56:43;92960.53;;;14.69;52.43